Time;durP1;ratioP1;P1;durP2;ratioP2;P2;SDS_P1;SDS_P2;PMS_P1;PMS_P2;Temp;Humidity;BMP_temperature;BMP_pressure;BME280_temperature;BME280_humidity;BME280_pressure;Samples;Min_cycle;Max_cycle;Signal;HPM_P1;HPM_P2
2023/06/17 00:00:42;;;;;;;8.50;6.18;;;;;;;16.06;84.52;100610.75;2089155;28;20219;-69
2023/06/17 00:01:44;;;;;;;9.43;6.13;;;;;;;16.09;84.55;100612.81;2076205;28;20581;-69
2023/06/17 00:02:45;;;;;;;8.02;6.60;;;;;;;16.11;83.97;100610.59;2089480;28;20128;-69
2023/06/17 00:03:47;;;;;;;8.75;6.10;;;;;;;16.14;84.45;100615.38;2088867;28;20756;-69
2023/06/17 00:04:51;;;;;;;9.80;5.85;;;;;;;16.20;84.12;100611.41;2097905;28;20106;-70
2023/06/17 00:05:54;;;;;;;12.15;5.68;;;;;;;16.24;83.89;100609.69;2097137;28;20028;-69
2023/06/17 00:06:56;;;;;;;8.48;5.50;;;;;;;16.30;83.64;100623.88;2098683;28;20037;-69
2023/06/17 00:07:58;;;;;;;8.63;5.72;;;;;;;16.31;83.57;100618.16;2098053;28;21042;-70
2023/06/17 00:09:02;;;;;;;9.35;5.72;;;;;;;16.32;83.18;100611.59;2098553;28;20021;-71
2023/06/17 00:10:05;;;;;;;12.40;6.60;;;;;;;16.29;82.99;100617.66;2098661;28;20029;-71
2023/06/17 00:11:06;;;;;;;6.82;5.78;;;;;;;16.21;82.77;100613.03;2107446;28;20020;-71
2023/06/17 00:12:12;;;;;;;10.82;6.63;;;;;;;16.16;82.86;100610.44;2106332;28;20037;-71
2023/06/17 00:13:19;;;;;;;9.13;6.55;;;;;;;16.07;83.18;100610.41;2099018;28;20064;-71
2023/06/17 00:14:23;;;;;;;10.77;6.80;;;;;;;15.94;83.31;100606.69;2108206;28;20032;-71
2023/06/17 00:15:25;;;;;;;8.63;7.00;;;;;;;15.88;84.11;100609.88;2107799;28;20036;-71
2023/06/17 00:16:32;;;;;;;10.63;7.78;;;;;;;15.82;84.00;100613.81;2107800;28;20029;-71
2023/06/17 00:17:34;;;;;;;11.63;7.95;;;;;;;15.80;84.65;100607.94;2116140;28;20028;-71
2023/06/17 00:18:36;;;;;;;14.20;8.10;;;;;;;15.74;85.47;100607.25;2099438;28;20025;-71
2023/06/17 00:19:40;;;;;;;10.77;8.45;;;;;;;15.72;85.76;100604.06;2099545;28;20025;-71
2023/06/17 00:20:41;;;;;;;12.32;8.43;;;;;;;15.76;86.19;100605.03;2107433;28;20968;-70
2023/06/17 00:21:44;;;;;;;12.38;8.48;;;;;;;15.78;86.14;100602.00;2082899;28;20041;-71
2023/06/17 00:22:48;;;;;;;11.00;8.20;;;;;;;15.84;86.53;100609.69;2092214;28;20033;-70
2023/06/17 00:23:50;;;;;;;12.82;8.00;;;;;;;15.88;86.29;100602.53;2107908;28;20028;-70
2023/06/17 00:24:56;;;;;;;12.07;8.80;;;;;;;15.92;86.48;100606.22;2099575;28;20024;-70
2023/06/17 00:26:04;;;;;;;12.18;9.25;;;;;;;15.94;86.08;100601.28;2098780;28;20075;-71
2023/06/17 00:27:06;;;;;;;13.25;8.25;;;;;;;15.94;86.01;100595.84;2106306;28;20872;-71
2023/06/17 00:28:08;;;;;;;12.68;7.53;;;;;;;15.93;85.93;100598.91;2089823;28;20041;-71
2023/06/17 00:29:10;;;;;;;11.43;7.30;;;;;;;15.92;85.84;100595.38;2084448;28;20842;-71
2023/06/17 00:30:12;;;;;;;9.63;7.35;;;;;;;15.93;85.60;100596.97;2083105;28;20045;-71
2023/06/17 00:31:14;;;;;;;10.15;6.80;;;;;;;15.94;85.29;100595.06;2082592;28;20868;-69
2023/06/17 00:32:18;;;;;;;10.32;6.80;;;;;;;15.94;85.27;100593.13;2082850;28;20029;-69
2023/06/17 00:33:21;;;;;;;8.70;6.75;;;;;;;15.96;85.21;100590.94;2082371;28;20875;-69
2023/06/17 00:34:22;;;;;;;12.40;7.38;;;;;;;15.96;84.88;100596.34;2082898;28;20171;-69
2023/06/17 00:35:26;;;;;;;9.23;7.18;;;;;;;15.94;84.94;100590.44;2090093;28;20036;-69
2023/06/17 00:36:28;;;;;;;9.88;7.35;;;;;;;15.97;84.79;100589.81;2065753;28;20032;-69
2023/06/17 00:37:29;;;;;;;9.95;7.78;;;;;;;15.97;84.86;100591.72;2073872;28;20893;-69
2023/06/17 00:38:31;;;;;;;11.63;7.88;;;;;;;15.98;84.66;100590.59;2090185;28;20036;-69
2023/06/17 00:39:33;;;;;;;12.77;7.78;;;;;;;15.99;84.84;100592.22;2073302;28;20042;-69
2023/06/17 00:40:34;;;;;;;9.50;7.65;;;;;;;15.96;84.70;100587.41;2080392;28;20042;-69
2023/06/17 00:41:37;;;;;;;9.48;7.03;;;;;;;15.93;84.71;100583.41;2089982;28;20136;-69
2023/06/17 00:42:40;;;;;;;13.55;7.43;;;;;;;15.92;84.70;100581.81;2074869;28;20042;-69
2023/06/17 00:43:42;;;;;;;9.68;6.93;;;;;;;15.91;84.60;100574.78;2082103;28;20033;-69
2023/06/17 00:44:43;;;;;;;9.63;7.28;;;;;;;15.96;84.24;100582.00;2082011;28;20156;-69
2023/06/17 00:45:46;;;;;;;10.48;7.40;;;;;;;15.94;84.29;100585.00;2065349;28;20129;-69
2023/06/17 00:46:50;;;;;;;11.45;7.70;;;;;;;15.91;84.49;100579.41;2073327;28;20149;-68
2023/06/17 00:47:59;;;;;;;11.98;8.18;;;;;;;15.88;84.26;100578.13;2096985;28;20025;-69
2023/06/17 00:49:07;;;;;;;12.85;7.85;;;;;;;15.86;84.44;100577.66;2090499;28;20921;-69
2023/06/17 00:50:09;;;;;;;12.50;7.72;;;;;;;15.85;84.45;100578.75;2090968;28;20037;-70
2023/06/17 00:51:11;;;;;;;9.70;7.13;;;;;;;15.86;84.77;100582.28;2091206;28;20069;-70
2023/06/17 00:52:16;;;;;;;10.65;7.80;;;;;;;15.83;84.68;100577.50;2090858;28;21281;-70
2023/06/17 00:53:18;;;;;;;14.25;9.23;;;;;;;15.83;84.46;100578.28;2091167;28;20040;-70
2023/06/17 00:54:20;;;;;;;9.75;7.43;;;;;;;15.83;84.65;100580.19;2090661;28;20037;-70
2023/06/17 00:55:21;;;;;;;10.63;7.63;;;;;;;15.84;84.60;100579.88;2082645;28;20041;-70
2023/06/17 00:56:25;;;;;;;11.23;7.45;;;;;;;15.86;84.84;100571.44;2082815;28;20091;-70
2023/06/17 00:57:28;;;;;;;10.13;7.30;;;;;;;15.90;84.89;100575.91;2091430;28;20033;-70
2023/06/17 00:58:30;;;;;;;10.60;7.25;;;;;;;15.98;84.53;100585.19;2098261;28;20944;-70
2023/06/17 00:59:32;;;;;;;13.23;7.75;;;;;;;16.02;84.65;100578.03;2098122;28;20041;-70
2023/06/17 01:00:34;;;;;;;10.30;7.30;;;;;;;16.03;84.17;100581.53;2090195;28;20030;-70
2023/06/17 01:01:37;;;;;;;11.30;7.25;;;;;;;15.98;83.98;100583.28;2091553;28;20038;-70
2023/06/17 01:02:40;;;;;;;12.38;7.63;;;;;;;15.93;83.84;100579.91;2098975;28;20879;-69
2023/06/17 01:03:42;;;;;;;10.23;7.53;;;;;;;15.89;83.80;100582.44;2099517;28;20083;-69
2023/06/17 01:04:43;;;;;;;9.45;7.13;;;;;;;15.86;83.81;100587.72;2090345;28;20025;-69
2023/06/17 01:05:49;;;;;;;11.27;8.10;;;;;;;15.81;83.78;100580.50;2083352;28;20060;-69
2023/06/17 01:06:59;;;;;;;12.82;7.15;;;;;;;15.79;84.02;100585.41;2099142;28;20037;-70
2023/06/17 01:08:14;;;;;;;9.20;7.22;;;;;;;15.82;84.08;100584.00;2098631;28;20061;-70
2023/06/17 01:09:20;;;;;;;10.45;7.90;;;;;;;15.82;84.03;100587.50;2097333;28;20169;-69
2023/06/17 01:10:47;;;;;;;13.60;8.57;;;;;;;15.80;83.98;100584.34;2090438;28;20875;-68
2023/06/17 01:11:55;;;;;;;12.30;7.95;;;;;;;15.75;84.01;100579.03;2084394;28;20068;-68
2023/06/17 01:13:00;;;;;;;9.77;7.45;;;;;;;15.72;84.08;100582.38;2091683;28;20036;-68
2023/06/17 01:14:02;;;;;;;11.93;7.90;;;;;;;15.65;83.94;100580.06;2099015;28;20036;-68
2023/06/17 01:15:04;;;;;;;11.00;8.18;;;;;;;15.57;84.03;100580.03;2090458;28;20033;-68
2023/06/17 01:16:07;;;;;;;11.05;8.38;;;;;;;15.49;84.31;100585.09;2082713;28;20907;-68
2023/06/17 01:17:13;;;;;;;10.68;8.23;;;;;;;15.47;84.71;100576.47;2099139;28;20041;-69
2023/06/17 01:18:17;;;;;;;17.33;8.43;;;;;;;15.43;84.57;100583.63;2082466;28;20096;-68
2023/06/17 01:19:23;;;;;;;13.75;8.55;;;;;;;15.44;84.95;100576.28;2075176;28;20039;-70
2023/06/17 01:20:28;;;;;;;14.50;8.90;;;;;;;15.44;85.09;100581.72;2083221;28;20033;-70
2023/06/17 01:21:31;;;;;;;15.68;8.52;;;;;;;15.43;85.33;100586.34;2092051;28;20068;-70
2023/06/17 01:22:35;;;;;;;11.55;8.18;;;;;;;15.44;84.92;100582.50;2107231;28;20040;-70
2023/06/17 01:23:38;;;;;;;22.63;8.10;;;;;;;15.45;85.13;100584.13;2098647;28;20143;-70
2023/06/17 01:24:42;;;;;;;12.35;8.65;;;;;;;15.43;85.18;100578.22;2099396;28;20029;-70
2023/06/17 01:25:45;;;;;;;10.73;8.48;;;;;;;15.40;85.03;100580.75;2107205;28;20062;-70
2023/06/17 01:26:54;;;;;;;11.23;8.07;;;;;;;15.37;85.43;100581.38;2098954;28;20024;-70
2023/06/17 01:27:59;;;;;;;12.38;8.43;;;;;;;15.39;85.66;100581.88;2091524;28;20022;-70
2023/06/17 01:29:02;;;;;;;14.25;9.20;;;;;;;15.41;85.71;100583.13;2088503;28;20140;-70
2023/06/17 01:30:11;;;;;;;13.65;8.75;;;;;;;15.45;85.77;100584.13;2097953;28;20033;-70
2023/06/17 01:31:18;;;;;;;13.93;8.30;;;;;;;15.52;85.84;100576.34;2105963;28;20143;-70
2023/06/17 01:32:21;;;;;;;10.95;7.97;;;;;;;15.55;85.52;100579.56;2098807;28;20106;-70
2023/06/17 01:33:28;;;;;;;11.13;8.35;;;;;;;15.51;84.98;100576.69;2091246;28;20054;-70
2023/06/17 01:34:58;;;;;;;12.63;8.20;;;;;;;15.48;84.71;100572.66;2083870;28;20112;-70
2023/06/17 01:36:10;;;;;;;14.63;8.70;;;;;;;15.46;85.03;100583.00;2103147;28;20028;-70
2023/06/17 01:37:14;;;;;;;12.50;8.57;;;;;;;15.43;85.35;100567.38;2115571;28;20827;-69
2023/06/17 01:38:23;;;;;;;9.27;7.38;;;;;;;15.41;85.25;100569.59;2107300;28;20032;-69
2023/06/17 01:39:26;;;;;;;11.82;8.52;;;;;;;15.38;85.37;100572.91;2091356;28;20037;-69
2023/06/17 01:40:30;;;;;;;11.35;8.05;;;;;;;15.36;85.22;100575.16;2090254;28;20057;-69
2023/06/17 01:41:42;;;;;;;13.15;8.45;;;;;;;15.38;85.70;100578.34;2090525;28;20037;-69
2023/06/17 01:42:51;;;;;;;13.90;9.27;;;;;;;15.38;86.01;100577.53;2094368;28;20037;-69
2023/06/17 01:43:54;;;;;;;13.55;8.80;;;;;;;15.38;86.21;100572.91;2108571;28;20074;-69
2023/06/17 01:45:03;;;;;;;13.15;9.55;;;;;;;15.36;86.58;100569.72;2107402;28;20145;-70
2023/06/17 01:46:06;;;;;;;13.25;9.00;;;;;;;15.35;86.44;100573.53;2097800;28;20883;-70
2023/06/17 01:47:11;;;;;;;16.65;9.93;;;;;;;15.36;86.58;100575.16;2098445;28;20072;-70
2023/06/17 01:48:14;;;;;;;12.10;8.68;;;;;;;15.39;86.60;100569.13;2081305;28;20034;-69
2023/06/17 01:49:16;;;;;;;12.60;9.45;;;;;;;15.39;87.05;100571.81;2088727;28;20841;-70
2023/06/17 01:50:20;;;;;;;13.07;9.25;;;;;;;15.43;87.03;100575.50;2097551;28;20024;-70
2023/06/17 01:51:25;;;;;;;11.00;8.27;;;;;;;15.41;86.70;100571.50;2099779;28;20045;-69
2023/06/17 01:52:26;;;;;;;13.40;9.45;;;;;;;15.43;87.10;100569.28;2107419;28;20036;-69
2023/06/17 01:53:27;;;;;;;16.38;9.15;;;;;;;15.44;86.59;100571.66;2098732;28;20460;-69
2023/06/17 01:54:30;;;;;;;11.90;9.25;;;;;;;15.50;86.85;100565.00;2090527;28;20025;-69
2023/06/17 01:55:34;;;;;;;15.77;9.50;;;;;;;15.56;86.86;100573.81;2090966;28;20853;-70
2023/06/17 01:56:38;;;;;;;12.65;9.70;;;;;;;15.56;86.66;100573.81;2099540;28;20044;-69
2023/06/17 01:57:40;;;;;;;18.15;10.25;;;;;;;15.55;86.70;100576.84;2107371;28;20021;-70
2023/06/17 01:58:43;;;;;;;14.95;9.88;;;;;;;15.56;86.62;100573.03;2090491;28;20784;-69
2023/06/17 01:59:47;;;;;;;15.82;10.00;;;;;;;15.51;86.48;100577.47;2090989;28;20021;-70
2023/06/17 02:00:48;;;;;;;11.27;9.30;;;;;;;15.51;86.32;100572.06;2099003;28;20181;-69
2023/06/17 02:01:51;;;;;;;17.42;10.00;;;;;;;15.55;86.70;100571.44;2090543;28;20782;-70
2023/06/17 02:02:52;;;;;;;13.63;9.30;;;;;;;15.52;86.54;100573.63;2090584;28;20867;-71
2023/06/17 02:03:53;;;;;;;13.30;8.77;;;;;;;15.50;86.46;100564.22;2098920;28;20021;-70
2023/06/17 02:04:57;;;;;;;13.88;9.55;;;;;;;15.50;86.71;100565.00;2107308;28;20041;-70
2023/06/17 02:06:00;;;;;;;16.30;10.50;;;;;;;15.49;86.60;100563.44;2106789;28;20045;-70
2023/06/17 02:07:05;;;;;;;13.95;10.63;;;;;;;15.50;87.25;100561.50;2107166;28;20759;-70
2023/06/17 02:08:07;;;;;;;13.57;10.23;;;;;;;15.51;87.28;100558.50;2090103;28;20037;-69
2023/06/17 02:09:08;;;;;;;16.70;9.45;;;;;;;15.52;87.47;100557.38;2089560;28;20942;-69
2023/06/17 02:10:12;;;;;;;14.13;9.20;;;;;;;15.53;87.00;100553.56;2097435;28;20036;-69
2023/06/17 02:11:14;;;;;;;14.43;9.93;;;;;;;15.55;87.29;100558.69;2089742;28;20065;-69
2023/06/17 02:12:16;;;;;;;14.73;10.63;;;;;;;15.53;87.15;100558.97;2089609;28;20875;-69
2023/06/17 02:13:17;;;;;;;17.13;10.32;;;;;;;15.52;86.93;100551.97;2074025;28;20101;-69
2023/06/17 02:14:22;;;;;;;14.35;8.90;;;;;;;15.50;86.90;100564.22;2090901;28;20013;-69
2023/06/17 02:15:27;;;;;;;13.63;9.52;;;;;;;15.47;86.85;100562.94;2106474;28;20920;-69
2023/06/17 02:16:32;;;;;;;15.13;10.07;;;;;;;15.46;86.48;100558.63;2098607;28;20039;-69
2023/06/17 02:17:35;;;;;;;16.63;10.77;;;;;;;15.47;86.78;100562.94;2090566;28;20032;-69
2023/06/17 02:18:39;;;;;;;18.23;11.05;;;;;;;15.49;87.00;100563.44;2098893;28;20110;-69
2023/06/17 02:19:41;;;;;;;18.05;11.05;;;;;;;15.47;87.62;100562.94;2099015;28;20033;-69
2023/06/17 02:20:46;;;;;;;15.48;11.27;;;;;;;15.49;87.70;100565.34;2099045;28;20150;-69
2023/06/17 02:21:51;;;;;;;15.75;11.00;;;;;;;15.51;88.34;100561.22;2098691;28;20064;-69
2023/06/17 02:22:55;;;;;;;16.08;11.65;;;;;;;15.55;88.34;100560.59;2099272;28;20199;-69
2023/06/17 02:24:02;;;;;;;17.88;10.82;;;;;;;15.57;88.57;100558.34;2091184;28;20130;-69
2023/06/17 02:25:05;;;;;;;15.27;10.45;;;;;;;15.57;88.30;100563.78;2099712;28;20862;-68
2023/06/17 02:26:06;;;;;;;13.88;10.20;;;;;;;15.58;88.21;100565.38;2089815;28;20044;-69
2023/06/17 02:27:07;;;;;;;15.52;10.23;;;;;;;15.57;88.54;100559.13;2089807;28;20029;-69
2023/06/17 02:28:10;;;;;;;13.52;9.20;;;;;;;15.57;87.95;100558.34;2097030;28;20025;-69
2023/06/17 02:29:12;;;;;;;13.23;9.85;;;;;;;15.54;88.20;100559.75;2074956;28;20022;-69
2023/06/17 02:30:16;;;;;;;15.18;9.20;;;;;;;15.53;88.10;100558.97;2072786;28;20026;-69
2023/06/17 02:31:18;;;;;;;12.85;9.48;;;;;;;15.51;87.67;100555.78;2098772;28;20057;-69
2023/06/17 02:32:20;;;;;;;15.82;10.25;;;;;;;15.50;87.65;100561.50;2106894;28;20814;-68
2023/06/17 02:33:27;;;;;;;14.05;9.00;;;;;;;15.49;87.55;100566.13;2106381;28;20139;-68
2023/06/17 02:34:29;;;;;;;13.02;9.50;;;;;;;15.46;87.57;100568.66;2098169;28;20076;-69
2023/06/17 02:35:31;;;;;;;13.48;10.23;;;;;;;15.43;87.41;100572.78;2090438;28;20948;-69
2023/06/17 02:36:33;;;;;;;16.17;10.45;;;;;;;15.47;87.66;100564.84;2081604;28;20160;-69
2023/06/17 02:37:36;;;;;;;12.80;9.80;;;;;;;15.48;87.58;100572.66;2082782;28;20026;-68
2023/06/17 02:38:38;;;;;;;13.65;9.85;;;;;;;15.50;87.42;100570.44;2089916;28;20045;-68
2023/06/17 02:39:41;;;;;;;13.38;10.02;;;;;;;15.51;87.23;100577.47;2074278;28;20138;-68
2023/06/17 02:40:46;;;;;;;17.30;10.82;;;;;;;15.53;87.37;100569.81;2090435;28;20772;-69
2023/06/17 02:41:48;;;;;;;14.82;10.38;;;;;;;15.50;87.28;100570.44;2098325;28;20037;-69
2023/06/17 02:42:50;;;;;;;15.63;10.55;;;;;;;15.47;87.59;100571.06;2090053;28;20065;-70
2023/06/17 02:43:53;;;;;;;17.05;10.43;;;;;;;15.48;87.75;100571.88;2090673;28;20144;-69
2023/06/17 02:44:59;;;;;;;14.80;10.85;;;;;;;15.47;87.73;100570.25;2082145;28;20033;-69
2023/06/17 02:46:03;;;;;;;17.10;11.32;;;;;;;15.47;88.08;100568.34;2083525;28;20044;-69
2023/06/17 02:47:08;;;;;;;18.65;11.38;;;;;;;15.47;88.15;100568.34;2081335;28;20865;-69
2023/06/17 02:48:09;;;;;;;13.98;10.45;;;;;;;15.45;88.23;100562.47;2081208;28;20034;-69
2023/06/17 02:49:13;;;;;;;16.63;10.63;;;;;;;15.48;88.51;100571.88;2087931;28;20188;-69
2023/06/17 02:50:20;;;;;;;15.90;10.50;;;;;;;15.48;88.69;100574.59;2098644;28;20036;-69
2023/06/17 02:51:22;;;;;;;17.98;11.02;;;;;;;15.47;88.50;100573.75;2104398;28;20029;-69
2023/06/17 02:52:23;;;;;;;16.38;10.70;;;;;;;15.47;88.40;100576.47;2104794;28;20025;-69
2023/06/17 02:53:26;;;;;;;17.70;11.45;;;;;;;15.47;88.70;100579.19;2096776;28;20240;-69
2023/06/17 02:54:27;;;;;;;17.55;11.27;;;;;;;15.45;88.87;100581.41;2088896;28;20028;-69
2023/06/17 02:55:29;;;;;;;15.93;11.30;;;;;;;15.40;89.01;100580.75;2096793;28;20029;-68
2023/06/17 02:56:33;;;;;;;16.77;11.07;;;;;;;15.41;88.96;100577.72;2097214;28;20025;-69
2023/06/17 02:57:35;;;;;;;22.63;11.35;;;;;;;15.43;89.48;100575.50;2105690;28;20127;-68
2023/06/17 02:58:38;;;;;;;20.50;11.20;;;;;;;15.44;89.58;100577.09;2105496;28;20020;-69
2023/06/17 02:59:44;;;;;;;38.38;9.82;;;;;;;15.43;89.57;100570.09;2097430;28;20040;-69
2023/06/17 03:00:46;;;;;;;17.02;10.00;;;;;;;15.43;90.03;100570.09;2105261;28;20036;-69
2023/06/17 03:01:48;;;;;;;16.25;10.60;;;;;;;15.44;90.46;100571.66;2097638;28;20901;-70
2023/06/17 03:02:49;;;;;;;42.97;10.75;;;;;;;15.49;90.84;100568.84;2098598;28;20044;-70
2023/06/17 03:03:54;;;;;;;33.85;10.80;;;;;;;15.53;90.88;100580.66;2081792;28;20140;-69
2023/06/17 03:04:56;;;;;;;17.20;10.43;;;;;;;15.56;91.24;100578.44;2083941;28;20042;-70
2023/06/17 03:06:03;;;;;;;28.95;10.93;;;;;;;15.59;91.38;100583.25;2106839;28;20033;-69
2023/06/17 03:07:07;;;;;;;25.42;10.52;;;;;;;15.58;91.44;100587.06;2091214;28;20028;-69
2023/06/17 03:08:09;;;;;;;31.85;10.18;;;;;;;15.53;91.52;100585.28;2074104;28;20046;-70
2023/06/17 03:09:11;;;;;;;28.20;9.18;;;;;;;15.49;91.65;100576.97;2089882;28;20224;-69
2023/06/17 03:10:15;;;;;;;66.82;9.48;;;;;;;15.48;91.88;100582.72;2089948;28;20042;-70
2023/06/17 03:11:21;;;;;;;74.43;8.15;;;;;;;15.32;92.56;100585.00;2091108;28;20033;-69
2023/06/17 03:12:23;;;;;;;67.93;8.25;;;;;;;15.19;93.16;100583.16;2089913;28;20114;-70
2023/06/17 03:13:28;;;;;;;27.45;7.43;;;;;;;15.05;93.67;100591.34;2082936;28;20841;-69
2023/06/17 03:14:30;;;;;;;17.55;7.57;;;;;;;15.02;94.26;100587.34;2098697;28;20190;-69
2023/06/17 03:15:35;;;;;;;14.95;7.93;;;;;;;15.04;94.98;100585.13;2089467;28;20025;-71
2023/06/17 03:16:40;;;;;;;98.07;8.93;;;;;;;15.04;95.21;100585.13;2090529;28;20761;-70
2023/06/17 03:17:42;;;;;;;34.17;7.53;;;;;;;15.04;95.61;100589.75;2088799;28;20063;-70
2023/06/17 03:18:43;;;;;;;19.33;7.70;;;;;;;15.09;95.85;100584.22;2081108;28;20874;-71
2023/06/17 03:19:46;;;;;;;28.58;8.10;;;;;;;15.14;95.80;100577.88;2089829;28;20761;-70
2023/06/17 03:20:55;;;;;;;54.90;7.75;;;;;;;15.16;95.88;100586.47;2098662;28;20152;-71
2023/06/17 03:21:57;;;;;;;39.63;8.32;;;;;;;15.16;96.40;100584.56;2098469;28;20961;-71
2023/06/17 03:23:02;;;;;;;38.75;7.72;;;;;;;15.18;96.27;100584.28;2098507;28;20025;-69
2023/06/17 03:24:05;;;;;;;14.00;7.78;;;;;;;15.21;96.31;100587.16;2089756;28;20847;-69
2023/06/17 03:25:09;;;;;;;15.43;7.72;;;;;;;15.28;96.83;100589.44;2082181;28;20844;-69
2023/06/17 03:26:11;;;;;;;18.88;7.78;;;;;;;15.37;97.05;100584.06;2090196;28;20152;-70
2023/06/17 03:27:13;;;;;;;32.97;8.65;;;;;;;15.43;96.79;100583.63;2081726;28;20030;-70
2023/06/17 03:28:15;;;;;;;21.67;8.30;;;;;;;15.46;96.78;100585.72;2081843;28;20869;-70
2023/06/17 03:29:17;;;;;;;18.92;8.35;;;;;;;15.50;96.66;100581.28;2083553;28;20033;-70
2023/06/17 03:30:24;;;;;;;16.40;7.85;;;;;;;15.57;96.83;100585.44;2082688;28;20157;-69
2023/06/17 03:31:25;;;;;;;15.93;8.35;;;;;;;15.65;96.83;100579.28;2090779;28;20029;-69
2023/06/17 03:32:29;;;;;;;20.95;8.43;;;;;;;15.70;96.57;100581.91;2090308;28;20040;-69
2023/06/17 03:33:30;;;;;;;42.13;9.40;;;;;;;15.71;96.27;100578.88;2089918;28;20132;-69
2023/06/17 03:34:33;;;;;;;18.20;8.10;;;;;;;15.70;95.96;100574.56;2089330;28;20028;-69
2023/06/17 03:35:36;;;;;;;24.75;8.82;;;;;;;15.69;95.74;100578.38;2089217;28;21045;-69
2023/06/17 03:36:39;;;;;;;23.23;8.75;;;;;;;15.68;95.57;100581.41;2080701;28;20026;-69
2023/06/17 03:37:44;;;;;;;86.25;9.40;;;;;;;15.69;95.85;100585.69;2081592;28;20026;-69
2023/06/17 03:38:47;;;;;;;17.65;8.23;;;;;;;15.69;95.74;100575.66;2083475;28;21237;-69
2023/06/17 03:39:50;;;;;;;19.00;8.60;;;;;;;15.72;95.62;100585.88;2082211;28;20908;-69
2023/06/17 03:40:52;;;;;;;24.35;9.30;;;;;;;15.71;95.81;100580.78;2081756;28;20026;-69
2023/06/17 03:41:54;;;;;;;16.50;8.23;;;;;;;15.73;95.83;100584.78;2082239;28;20769;-69
2023/06/17 03:42:57;;;;;;;18.33;8.50;;;;;;;15.77;96.07;100574.13;2091242;28;20033;-69
2023/06/17 03:43:58;;;;;;;18.52;9.13;;;;;;;15.78;95.65;100580.31;2083134;28;20193;-69
2023/06/17 03:45:00;;;;;;;18.52;9.55;;;;;;;15.80;95.61;100581.63;2083277;28;20991;-69
2023/06/17 03:46:02;;;;;;;57.70;9.18;;;;;;;15.82;95.79;100582.09;2082757;28;20030;-69
2023/06/17 03:47:06;;;;;;;18.98;8.93;;;;;;;15.80;95.63;100578.91;2107856;28;20933;-68
2023/06/17 03:48:08;;;;;;;24.48;8.73;;;;;;;15.80;95.75;100580.81;2099751;28;20025;-69
2023/06/17 03:49:10;;;;;;;17.50;8.80;;;;;;;15.86;95.73;100585.00;2099652;28;20075;-69
2023/06/17 03:50:11;;;;;;;17.60;8.77;;;;;;;15.90;95.68;100578.63;2091339;28;20033;-69
2023/06/17 03:51:13;;;;;;;19.30;8.98;;;;;;;15.96;95.71;100577.38;2099774;28;20091;-69
2023/06/17 03:52:16;;;;;;;16.38;8.10;;;;;;;16.05;95.64;100582.03;2099552;28;20032;-69
2023/06/17 03:53:18;;;;;;;17.48;9.25;;;;;;;16.07;95.22;100582.50;2099450;28;20103;-69
2023/06/17 03:54:20;;;;;;;16.25;9.05;;;;;;;16.07;95.20;100575.16;2091617;28;20868;-68
2023/06/17 03:55:22;;;;;;;16.30;9.82;;;;;;;16.11;95.19;100575.31;2099790;28;20068;-69
2023/06/17 03:56:27;;;;;;;18.55;9.43;;;;;;;16.15;94.84;100579.03;2098125;28;21347;-69
2023/06/17 03:57:29;;;;;;;22.65;10.20;;;;;;;16.19;94.31;100579.97;2090897;28;20079;-69
2023/06/17 03:58:34;;;;;;;18.52;10.32;;;;;;;16.19;93.56;100574.56;2097937;28;20021;-69
2023/06/17 03:59:37;;;;;;;16.92;10.73;;;;;;;16.19;92.93;100574.56;2083141;28;20046;-68
2023/06/17 04:00:39;;;;;;;22.90;10.00;;;;;;;16.22;92.90;100576.63;2091115;28;20068;-68
2023/06/17 04:01:41;;;;;;;24.42;10.35;;;;;;;16.22;92.73;100565.78;2099843;28;20014;-69
2023/06/17 04:02:45;;;;;;;21.35;10.45;;;;;;;16.28;92.08;100575.38;2091310;28;20037;-69
2023/06/17 04:03:53;;;;;;;20.00;9.73;;;;;;;16.26;91.40;100583.03;2099427;28;20232;-70
2023/06/17 04:04:55;;;;;;;20.95;10.38;;;;;;;16.16;91.26;100572.47;2099812;28;20069;-70
2023/06/17 04:05:57;;;;;;;31.73;10.00;;;;;;;16.03;91.00;100581.53;2099324;28;20067;-70
2023/06/17 04:07:00;;;;;;;25.38;10.32;;;;;;;15.89;91.45;100570.78;2083366;28;20040;-70
2023/06/17 04:08:02;;;;;;;21.38;10.50;;;;;;;15.84;92.22;100579.06;2083387;28;20985;-70
2023/06/17 04:09:05;;;;;;;21.45;10.18;;;;;;;15.80;92.93;100572.69;2099713;28;20036;-69
2023/06/17 04:10:09;;;;;;;26.88;11.20;;;;;;;15.79;93.50;100571.88;2108337;28;20064;-69
2023/06/17 04:11:11;;;;;;;19.35;9.70;;;;;;;15.83;93.90;100572.88;2081213;28;20167;-69
2023/06/17 04:12:11;;;;;;;21.05;9.85;;;;;;;15.84;94.20;100568.22;2091178;28;20873;-70
2023/06/17 04:13:14;;;;;;;21.00;10.27;;;;;;;15.84;95.03;100571.75;2090966;28;20026;-69
2023/06/17 04:14:15;;;;;;;35.33;9.45;;;;;;;15.91;95.07;100569.38;2091432;28;20033;-70
2023/06/17 04:15:17;;;;;;;23.02;9.32;;;;;;;15.92;95.39;100565.56;2106712;28;20782;-70
2023/06/17 04:16:21;;;;;;;35.70;9.63;;;;;;;15.97;95.53;100561.88;2090133;28;20802;-70
2023/06/17 04:17:25;;;;;;;23.15;10.25;;;;;;;15.98;95.74;100563.47;2089856;28;20033;-70
2023/06/17 04:18:28;;;;;;;20.42;9.68;;;;;;;16.01;95.95;100562.06;2099183;28;20135;-70
2023/06/17 04:19:31;;;;;;;22.23;9.73;;;;;;;16.01;96.36;100556.63;2091011;28;20033;-70
2023/06/17 04:20:36;;;;;;;30.23;10.20;;;;;;;16.04;96.43;100569.56;2101191;28;20049;-70
2023/06/17 04:21:38;;;;;;;20.15;9.93;;;;;;;16.09;96.88;100569.44;2090844;28;20744;-70
2023/06/17 04:22:41;;;;;;;22.35;10.52;;;;;;;16.12;97.30;100568.81;2091793;28;20886;-69
2023/06/17 04:23:44;;;;;;;23.73;10.55;;;;;;;16.13;96.83;100575.81;2107999;28;20036;-69
2023/06/17 04:24:47;;;;;;;22.52;10.52;;;;;;;16.15;97.22;100568.16;2090975;28;20153;-68
2023/06/17 04:25:48;;;;;;;23.08;10.48;;;;;;;16.21;97.25;100577.75;2091312;28;20040;-70
2023/06/17 04:26:52;;;;;;;23.25;10.38;;;;;;;16.27;97.41;100570.25;2090704;28;20037;-69
2023/06/17 04:27:56;;;;;;;30.25;10.65;;;;;;;16.34;97.34;100582.25;2083484;28;20089;-70
2023/06/17 04:29:00;;;;;;;23.00;10.73;;;;;;;16.35;97.50;100573.00;2095341;28;20030;-70
2023/06/17 04:30:03;;;;;;;22.58;10.15;;;;;;;16.38;97.46;100572.34;2090799;28;20860;-69
2023/06/17 04:31:10;;;;;;;23.45;9.95;;;;;;;16.40;97.01;100575.56;2083201;28;20061;-68
2023/06/17 04:32:15;;;;;;;23.58;10.55;;;;;;;16.36;97.03;100566.47;2084612;28;20093;-69
2023/06/17 04:33:18;;;;;;;21.33;10.45;;;;;;;16.35;96.84;100567.56;2091102;28;20037;-69
2023/06/17 04:34:23;;;;;;;27.63;12.30;;;;;;;16.37;96.79;100565.34;2098950;28;20025;-69
2023/06/17 04:35:29;;;;;;;19.63;10.20;;;;;;;16.37;97.00;100565.34;2090867;28;20072;-69
2023/06/17 04:36:32;;;;;;;22.20;11.32;;;;;;;16.39;96.19;100568.53;2092377;28;20875;-69
2023/06/17 04:37:36;;;;;;;23.60;11.10;;;;;;;16.43;96.06;100566.78;2090926;28;20073;-69
2023/06/17 04:38:38;;;;;;;21.00;10.65;;;;;;;16.47;95.19;100563.44;2091433;28;20867;-69
2023/06/17 04:39:41;;;;;;;21.60;11.10;;;;;;;16.48;94.51;100565.03;2099238;28;20032;-69
2023/06/17 04:40:43;;;;;;;23.55;12.52;;;;;;;16.48;94.12;100565.03;2097645;28;20172;-69
2023/06/17 04:41:48;;;;;;;26.05;12.82;;;;;;;16.50;93.83;100560.09;2089405;28;20095;-71
2023/06/17 04:42:51;;;;;;;24.52;12.10;;;;;;;16.56;93.44;100567.75;2081955;28;20188;-70
2023/06/17 04:43:54;;;;;;;21.73;11.38;;;;;;;16.61;92.79;100562.19;2091000;28;20018;-71
2023/06/17 04:44:56;;;;;;;21.00;10.63;;;;;;;16.66;92.29;100563.94;2082500;28;20037;-71
2023/06/17 04:45:58;;;;;;;20.65;10.55;;;;;;;16.71;92.31;100562.97;2082961;28;20165;-70
2023/06/17 04:47:03;;;;;;;20.48;10.00;;;;;;;16.74;91.81;100560.44;2091319;28;20022;-71
2023/06/17 04:48:07;;;;;;;24.40;10.73;;;;;;;16.75;91.26;100559.31;2091427;28;20041;-71
2023/06/17 04:49:08;;;;;;;19.85;10.95;;;;;;;16.75;90.59;100562.03;2090934;28;20030;-71
2023/06/17 04:50:10;;;;;;;20.20;10.93;;;;;;;16.75;90.17;100558.50;2090414;28;20029;-71
2023/06/17 04:51:12;;;;;;;24.42;10.75;;;;;;;16.74;89.75;100551.47;2090906;28;20029;-71